createdAt,value
2023-05-19T00:07:08.159Z,18.48
2023-05-19T00:17:14.991Z,18.46
2023-05-19T00:27:21.229Z,18.46
2023-05-19T00:37:27.221Z,18.48
2023-05-19T00:47:33.413Z,18.48
2023-05-19T00:57:40.232Z,18.48
2023-05-19T01:07:46.484Z,18.48
2023-05-19T01:17:52.777Z,18.49
2023-05-19T01:27:59.190Z,18.49
2023-05-19T01:38:05.068Z,18.50
2023-05-19T01:48:11.794Z,18.54
2023-05-19T01:58:18.128Z,18.54
2023-05-19T02:08:24.180Z,18.55
2023-05-19T02:18:30.599Z,18.57
2023-05-19T02:28:36.930Z,18.57
2023-05-19T02:38:43.620Z,18.57
2023-05-19T02:48:49.581Z,18.57
2023-05-19T02:58:55.878Z,18.54
2023-05-19T03:09:02.073Z,18.54
2023-05-19T03:19:08.545Z,18.52
2023-05-19T03:29:14.889Z,18.52
2023-05-19T03:39:21.052Z,18.49
2023-05-19T03:49:27.643Z,18.48
2023-05-19T03:59:34.030Z,18.45
2023-05-19T04:09:40.156Z,18.45
2023-05-19T04:19:46.317Z,18.42
2023-05-19T04:29:52.519Z,18.42
2023-05-19T04:39:59.009Z,18.42
2023-05-19T04:50:05.151Z,18.42
2023-05-19T05:00:10.223Z,18.42
2023-05-19T05:10:16.220Z,18.49
2023-05-19T05:20:22.019Z,18.55
2023-05-19T05:30:28.011Z,18.54
2023-05-19T05:40:34.072Z,18.54
2023-05-19T05:50:39.831Z,18.59
2023-05-19T06:00:45.597Z,18.59
2023-05-19T06:10:50.861Z,18.64
2023-05-19T06:20:53.487Z,13.45
2023-05-19T06:30:59.643Z,13.80
2023-05-19T06:41:05.410Z,12.51
2023-05-19T06:51:11.951Z,13.38
2023-05-19T07:01:18.595Z,15.27
2023-05-19T07:11:24.698Z,16.46
2023-05-19T07:21:30.316Z,17.01
2023-05-19T07:31:36.045Z,17.32
2023-05-19T07:41:42.072Z,17.32
2023-05-19T07:51:48.087Z,16.48
2023-05-19T08:01:53.290Z,16.48
2023-05-19T08:11:58.570Z,16.97
2023-05-19T08:22:04.265Z,17.37
2023-05-19T08:32:11.633Z,17.52
2023-05-19T08:42:19.064Z,17.52
2023-05-19T08:52:25.183Z,18.21
2023-05-19T09:02:30.877Z,18.21
2023-05-19T09:12:36.765Z,18.50
2023-05-19T09:22:42.560Z,18.66
2023-05-19T09:32:48.723Z,19.17
2023-05-19T09:42:54.332Z,19.17
2023-05-19T09:53:00.004Z,19.58
2023-05-19T10:03:05.478Z,19.72
2023-05-19T10:13:11.152Z,19.00
2023-05-19T10:23:17.151Z,18.92
2023-05-19T10:33:23.276Z,18.92
2023-05-19T10:43:29.076Z,18.85
2023-05-19T10:53:35.131Z,18.82
2023-05-19T11:03:43.036Z,18.80
2023-05-19T11:13:49.207Z,18.75
2023-05-19T11:23:54.436Z,18.75
2023-05-19T11:34:00.684Z,18.73
2023-05-19T11:44:06.247Z,18.73
2023-05-19T11:54:12.032Z,18.73
2023-05-19T12:04:17.923Z,18.71
2023-05-19T12:14:23.674Z,18.71
2023-05-19T12:24:29.250Z,18.67
2023-05-19T12:34:35.239Z,18.67
2023-05-19T12:44:40.828Z,18.67
2023-05-19T12:54:46.692Z,18.66
2023-05-19T13:04:52.535Z,18.64
2023-05-19T13:14:58.181Z,18.63
2023-05-19T13:25:04.027Z,18.67
2023-05-19T13:35:09.750Z,18.67
2023-05-19T13:45:15.465Z,18.67
2023-05-19T13:55:20.979Z,18.68
2023-05-19T14:05:26.610Z,18.68
2023-05-19T14:15:32.466Z,18.68
2023-05-19T14:25:38.381Z,18.67
2023-05-19T14:35:44.293Z,18.70
2023-05-19T14:45:49.940Z,18.70
2023-05-19T14:55:55.605Z,18.72
2023-05-19T15:06:01.123Z,18.72
2023-05-19T15:16:17.068Z,18.71
2023-05-19T15:26:16.906Z,18.72
2023-05-19T15:36:22.589Z,18.75
2023-05-19T15:46:28.357Z,18.75
2023-05-19T15:56:34.050Z,18.72
2023-05-19T16:06:39.634Z,18.72
2023-05-19T16:16:45.164Z,18.75
2023-05-19T16:26:51.139Z,18.75
2023-05-19T16:36:57.482Z,18.73
2023-05-19T16:47:03.268Z,18.73
2023-05-19T16:57:09.064Z,18.72
2023-05-19T17:07:14.879Z,18.72
2023-05-19T17:17:20.032Z,18.70
2023-05-19T17:27:25.907Z,18.70
2023-05-19T17:37:31.976Z,18.70
2023-05-19T17:47:37.693Z,18.70
2023-05-19T17:57:43.293Z,18.68
2023-05-19T18:07:49.104Z,18.68
2023-05-19T18:17:54.854Z,18.67
2023-05-19T18:28:00.746Z,18.67
2023-05-19T18:38:06.234Z,18.64
2023-05-19T18:48:12.172Z,18.66
2023-05-19T18:58:17.810Z,18.02
2023-05-19T19:08:23.257Z,17.85
2023-05-19T19:18:28.760Z,17.85
2023-05-19T19:28:34.578Z,17.85
2023-05-19T19:38:40.369Z,17.50
2023-05-19T19:48:45.603Z,17.50
2023-05-19T19:58:51.073Z,17.24
2023-05-19T20:08:56.354Z,17.24
2023-05-19T20:19:02.188Z,16.93
2023-05-19T20:29:07.939Z,16.97
2023-05-19T20:39:13.916Z,16.97
2023-05-19T20:49:19.720Z,17.50
2023-05-19T20:59:25.134Z,17.81
2023-05-19T21:09:30.899Z,17.90
2023-05-19T21:19:36.627Z,18.00
2023-05-19T21:29:42.751Z,18.08
2023-05-19T21:39:48.140Z,18.08
2023-05-19T21:49:53.472Z,18.14
2023-05-19T21:59:58.740Z,18.20
2023-05-19T22:10:04.568Z,18.31
2023-05-19T22:20:09.814Z,18.31
2023-05-19T22:30:15.553Z,18.38
2023-05-19T22:40:21.063Z,18.41
2023-05-19T22:50:27.037Z,18.45
2023-05-19T23:00:32.954Z,18.46
2023-05-19T23:10:38.542Z,18.46
2023-05-19T23:20:44.129Z,18.46
2023-05-19T23:30:50.029Z,18.53
2023-05-19T23:40:55.802Z,18.54
2023-05-19T23:51:01.418Z,18.54
